Buoy 32679

sailwx.info

Track history (hours):
 
Tides and Currents Weather Stations Pressure Air Temp Water Temp Dewpoint Dewpoint Depression Visibility Wind Speed Wind Dir Waves Ship Positions

Drifting buoy 32679

Last reported at 2018-Apr-24 11:00 UTC. Time now 2018-Apr-24 12:38 UTC.
Position N 03°35' E 119°56'.

Water temperature 29.4 ° C

Date/timePositionNaut miles runAvg speedWind from/ knotsBaromVisibWave heightAir tempDewpointWater temp
2018-Apr-24 11:00N 03°35' E 119°56'1 0.6 29.4
2018-Apr-24 10:00N 03°35' E 119°55'1 0.3 29.5
2018-Apr-24 08:00N 03°34' E 119°55'0 0.0 30.3
2018-Apr-24 06:00N 03°34' E 119°55'2 0.4 35.9
2018-Apr-24 01:00N 03°34' E 119°57'2 1.8 32.5
2018-Apr-24 00:00N 03°34' E 119°55'1 0.3 31.7
2018-Apr-23 22:00N 03°34' E 119°56'0 0.0 28.9
2018-Apr-23 21:00N 03°34' E 119°56'1 0.6 28.9
2018-Apr-23 20:00N 03°34' E 119°56'1 0.6 28.9
2018-Apr-23 19:00N 03°34' E 119°55'1 0.1 28.9
2018-Apr-23 14:00N 03°34' E 119°56'0 0.0 29.3
2018-Apr-23 13:00N 03°34' E 119°56'0 0.0 29.3
2018-Apr-23 11:00N 03°34' E 119°56'1 0.6 29.3
2018-Apr-23 10:00N 03°34' E 119°55'0 0.0 29.4
2018-Apr-23 08:00N 03°34' E 119°55'0 0.0 30.2
2018-Apr-23 07:00N 03°34' E 119°55'0 0.0 30.1
2018-Apr-23 06:00N 03°34' E 119°55'1 0.3 35.9
2018-Apr-23 01:00N 03°34' E 119°56'0 0.0 33.1
2018-Apr-23 00:00N 03°34' E 119°56'0 0.0 31.9
2018-Apr-22 23:00N 03°34' E 119°56'7 6.6 28.9
2018-Apr-22 22:00N 03°40' E 119°57'7 3.4 27.3
2018-Apr-22 20:00N 03°46' E 119°54'6 6.1 28.5
2018-Apr-22 19:00N 03°40' E 119°55'6 1.0 28.8
2018-Apr-22 13:00N 03°46' E 119°54'1 0.8 29.3
2018-Apr-22 12:00N 03°46' E 119°55'1 0.2 29.4
2018-Apr-22 09:00N 03°46' E 119°54'1 0.8 29.9
2018-Apr-22 08:00N 03°46' E 119°53'0 0.0 30.1
2018-Apr-22 07:00N 03°46' E 119°53'0 0.0 30.4
2018-Apr-22 06:00N 03°46' E 119°53'1 0.3 30.8
2018-Apr-22 01:00N 03°46' E 119°55'0 0.0 34.5
2018-Apr-22 00:00N 03°46' E 119°55'6 5.7 31.1
2018-Apr-21 23:00N 03°41' E 119°58'0 0.0 29.7
2018-Apr-21 22:00N 03°41' E 119°58'2 1.1 27.3
2018-Apr-21 20:00N 03°39' E 119°59'0 0.0 28.3
2018-Apr-21 19:00N 03°39' E 119°59'0 0.0 28.2
2018-Apr-21 18:00N 03°39' E 119°59'0 0.0 28.1
2018-Apr-21 12:00N 03°39' E 119°59'0 0.0 26.6
2018-Apr-21 11:00N 03°39' E 119°59'0 0.0 27.7
2018-Apr-21 10:00N 03°39' E 119°59'1 0.8 29.8
2018-Apr-21 09:00N 03°40' E 119°58'6 3.2 30.9
2018-Apr-21 07:00N 03°35' E 119°54'0 0.0 35.9
2018-Apr-21 02:00N 03°35' E 119°54'3 3.0 29.8
2018-Apr-21 01:00N 03°35' E 119°57'0 0.0 29.6
2018-Apr-21 00:00N 03°35' E 119°57'2 2.2 29.4
2018-Apr-20 23:00N 03°36' E 119°59'0 0.0 29.4
2018-Apr-20 22:00N 03°36' E 119°59'0 0.0 29.4
2018-Apr-20 21:00N 03°36' E 119°59'2 2.5 29.4
2018-Apr-20 20:00N 03°38' E 119°59'0 0.0 29.4
2018-Apr-20 19:00N 03°38' E 119°59'0 0.0 29.4
2018-Apr-20 18:00N 03°38' E 119°59'7 1.7 29.4
2018-Apr-20 14:00N 03°41' E 120°05'4 3.6 29.5
2018-Apr-20 13:00N 03°42' E 120°09'3 1.6 29.5
2018-Apr-20 11:00N 03°45' E 120°10'1 0.8 29.6
2018-Apr-20 10:00N 03°44' E 120°11'5 2.6 29.9
2018-Apr-20 08:00N 03°49' E 120°14'9 1.6 30.3
2018-Apr-20 02:00N 03°52' E 120°23'2 0.8 29.5
2018-Apr-20 00:00N 03°53' E 120°24'2 1.7 28.8
2018-Apr-19 23:00N 03°54' E 120°25'0 0.0 29.2
2018-Apr-19 22:00N 03°54' E 120°25'1 0.8 29.2
2018-Apr-19 21:00N 03°55' E 120°26'2 1.9 29.2
2018-Apr-19 20:00N 03°56' E 120°26'6 6.3 29.3
2018-Apr-19 19:00N 03°58' E 120°32'6 5.9 29.3
2018-Apr-19 18:00N 03°56' E 120°27'6 1.2 29.3
2018-Apr-19 13:00N 03°58' E 120°32'2 1.8 29.3
2018-Apr-19 12:00N 03°58' E 120°34'1 0.8 29.2
2018-Apr-19 11:00N 03°59' E 120°34'2 1.9 29.4
2018-Apr-19 10:00N 03°59' E 120°35'1 0.6 29.4
2018-Apr-19 09:00N 03°59' E 120°36'1 0.8 29.4
2018-Apr-19 08:00N 04°00' E 120°37'0 0.0 29.4
2018-Apr-19 07:00N 04°00' E 120°37'8 1.3 29.5
2018-Apr-19 01:00N 04°01' E 120°44'0 0.0 29.8
2018-Apr-19 00:00N 04°01' E 120°44'3 2.5 29.3
2018-Apr-18 23:00N 04°03' E 120°46'2 1.7 29.3
2018-Apr-18 22:00N 04°04' E 120°47'0 0.0 29.2
2018-Apr-18 21:00N 04°04' E 120°47'0 0.0 29.3
2018-Apr-18 20:00N 04°04' E 120°47'7 7.0 29.3
2018-Apr-18 19:00N 04°07' E 120°54'7 7.0 29.3
2018-Apr-18 18:00N 04°04' E 120°47'8 1.9 29.3
2018-Apr-18 14:00N 04°07' E 120°55'0 0.0 29.3
2018-Apr-18 13:00N 04°07' E 120°55'2 1.9 29.3
2018-Apr-18 12:00N 04°08' E 120°56'1 0.8 29.4
2018-Apr-18 11:00N 04°07' E 120°56'1 1.3 29.4
2018-Apr-18 10:00N 04°08' E 120°57'1 0.6 29.4
2018-Apr-18 09:00N 04°08' E 120°56'0 0.0 29.5
2018-Apr-18 08:00N 04°08' E 120°56'2 2.4 29.7
2018-Apr-18 07:00N 04°08' E 120°59'0 0.0 30.5
2018-Apr-18 06:00N 04°08' E 120°59'8 1.6 30.2
2018-Apr-18 01:00N 04°08' E 121°07'0 0.0 29.4
2018-Apr-18 00:00N 04°08' E 121°07'1 1.2 29.5
2018-Apr-17 23:00N 04°08' E 121°08'3 3.2 29.4
2018-Apr-17 22:00N 04°09' E 121°11'2 2.4 29.4
2018-Apr-17 21:00N 04°09' E 121°13'0 0.0 29.4
2018-Apr-17 20:00N 04°09' E 121°13'7 7.2 29.4
2018-Apr-17 19:00N 04°10' E 121°20'7 7.2 29.4
2018-Apr-17 18:00N 04°09' E 121°13'7 1.8 29.4
2018-Apr-17 14:00N 04°10' E 121°20'1 1.2 29.4
2018-Apr-17 13:00N 04°10' E 121°22'2 1.9 29.4
2018-Apr-17 12:00N 04°10' E 121°23'1 1.3 29.4
2018-Apr-17 11:00N 04°11' E 121°25'1 0.8 29.4
2018-Apr-17 10:00N 04°10' E 121°24'3 3.5 29.4
2018-Apr-17 09:00N 04°12' E 121°27'0 0.0 29.4
2018-Apr-17 08:00N 04°12' E 121°27'2 0.9 29.4
2018-Apr-17 06:00N 04°12' E 121°29'8 1.6 29.5
2018-Apr-17 01:00N 04°12' E 121°37'3 3.0 29.4
2018-Apr-17 00:00N 04°14' E 121°39'0 0.0 29.4
2018-Apr-16 23:00N 04°14' E 121°39'1 1.3 29.4
2018-Apr-16 22:00N 04°14' E 121°40'3 3.0 29.2
2018-Apr-16 21:00N 04°16' E 121°43'0 0.0 29.4
2018-Apr-16 20:00N 04°16' E 121°43'3 3.1 29.3
2018-Apr-16 19:00N 04°17' E 121°46'0 0.0 29.4
2018-Apr-16 14:00N 04°17' E 121°46'3 3.0 29.3
2018-Apr-16 13:00N 04°19' E 121°48'1 0.6 29.3
2018-Apr-16 12:00N 04°19' E 121°49'2 1.7 29.4
2018-Apr-16 11:00N 04°20' E 121°50'0 0.0 29.5
2018-Apr-16 10:00N 04°20' E 121°50'3 3.4 29.5
2018-Apr-16 09:00N 04°22' E 121°52'1 1.3 29.5
2018-Apr-16 08:00N 04°21' E 121°52'1 1.3 29.6
2018-Apr-16 07:00N 04°22' E 121°52'0 0.0 29.6
2018-Apr-16 06:00N 04°22' E 121°52'7 1.8 29.6
2018-Apr-16 02:00N 04°25' E 121°59'1 0.8 29.5
2018-Apr-16 01:00N 04°25' E 121°59'0 0.0 29.5
2018-Apr-16 00:00N 04°25' E 121°59'0 0.0 29.4
2018-Apr-15 23:00N 04°25' E 121°59'1 0.6 29.4
2018-Apr-15 22:00N 04°25' E 122°00'2 1.9 29.4
2018-Apr-15 21:00N 04°24' E 122°02'2 1.8 29.4
2018-Apr-15 20:00N 04°24' E 122°00'5 5.4 29.5
2018-Apr-15 19:00N 04°22' E 122°05'0 0.0 29.5
2018-Apr-15 14:00N 04°22' E 122°05'1 0.8 29.6
2018-Apr-15 13:00N 04°21' E 122°05'2 1.8 29.6
2018-Apr-15 12:00N 04°21' E 122°07'1 0.8 29.7
2018-Apr-15 11:00N 04°20' E 122°08'0 0.0 29.7
2018-Apr-15 09:00N 04°20' E 122°08'0 0.0 29.8
2018-Apr-15 08:00N 04°20' E 122°08'7 7.2 29.9
2018-Apr-15 07:00N 04°20' E 122°15'7 7.2 29.9
2018-Apr-15 06:00N 04°20' E 122°08'7 1.8 29.9
2018-Apr-15 02:00N 04°20' E 122°15'5 2.3 29.6
2018-Apr-15 00:00N 04°18' E 122°19'0 0.0 29.4
2018-Apr-14 23:00N 04°18' E 122°19'5 4.9 29.4
2018-Apr-14 22:00N 04°17' E 122°24'2 2.5 29.4
2018-Apr-14 21:00N 04°16' E 122°22'3 3.4 29.4
2018-Apr-14 20:00N 04°14' E 122°24'0 0.0 29.4
2018-Apr-14 19:00N 04°14' E 122°24'1010.2 29.4
2018-Apr-14 18:00N 04°10' E 122°34'0 0.0 29.4
2018-Apr-14 14:00N 04°10' E 122°34'2 2.2 29.5
2018-Apr-14 13:00N 04°09' E 122°35'3 3.2 29.5
2018-Apr-14 12:00N 04°08' E 122°38'1 1.2 29.5
2018-Apr-14 11:00N 04°08' E 122°40'   29.6
Track history (hours):
 
Tides and Currents Weather Stations Pressure Air Temp Water Temp Dewpoint Dewpoint Depression Visibility Wind Speed Wind Dir Waves Ship Positions

Drifting buoy 32679

Last reported at 2018-Apr-24 11:00 UTC. Time now 2018-Apr-24 12:38 UTC.
Position N 03°35' E 119°56'.

Water temperature 29.4 ° C

Date/timePositionNaut miles runAvg speedWind from/ knotsBaromVisibWave heightAir tempDewpointWater temp
2018-Apr-24 11:00N 03°35' E 119°56'1 0.6 29.4
2018-Apr-24 10:00N 03°35' E 119°55'1 0.3 29.5
2018-Apr-24 08:00N 03°34' E 119°55'0 0.0 30.3
2018-Apr-24 06:00N 03°34' E 119°55'2 0.4 35.9
2018-Apr-24 01:00N 03°34' E 119°57'2 1.8 32.5
2018-Apr-24 00:00N 03°34' E 119°55'1 0.3 31.7
2018-Apr-23 22:00N 03°34' E 119°56'0 0.0 28.9
2018-Apr-23 21:00N 03°34' E 119°56'1 0.6 28.9
2018-Apr-23 20:00N 03°34' E 119°56'1 0.6 28.9
2018-Apr-23 19:00N 03°34' E 119°55'1 0.1 28.9
2018-Apr-23 14:00N 03°34' E 119°56'0 0.0 29.3
2018-Apr-23 13:00N 03°34' E 119°56'0 0.0 29.3
2018-Apr-23 11:00N 03°34' E 119°56'1 0.6 29.3
2018-Apr-23 10:00N 03°34' E 119°55'0 0.0 29.4
2018-Apr-23 08:00N 03°34' E 119°55'0 0.0 30.2
2018-Apr-23 07:00N 03°34' E 119°55'0 0.0 30.1
2018-Apr-23 06:00N 03°34' E 119°55'1 0.3 35.9
2018-Apr-23 01:00N 03°34' E 119°56'0 0.0 33.1
2018-Apr-23 00:00N 03°34' E 119°56'0 0.0 31.9
2018-Apr-22 23:00N 03°34' E 119°56'7 6.6 28.9
2018-Apr-22 22:00N 03°40' E 119°57'7 3.4 27.3
2018-Apr-22 20:00N 03°46' E 119°54'6 6.1 28.5
2018-Apr-22 19:00N 03°40' E 119°55'6 1.0 28.8
2018-Apr-22 13:00N 03°46' E 119°54'1 0.8 29.3
2018-Apr-22 12:00N 03°46' E 119°55'1 0.2 29.4
2018-Apr-22 09:00N 03°46' E 119°54'1 0.8 29.9
2018-Apr-22 08:00N 03°46' E 119°53'0 0.0 30.1
2018-Apr-22 07:00N 03°46' E 119°53'0 0.0 30.4
2018-Apr-22 06:00N 03°46' E 119°53'1 0.3 30.8
2018-Apr-22 01:00N 03°46' E 119°55'0 0.0 34.5
2018-Apr-22 00:00N 03°46' E 119°55'6 5.7 31.1
2018-Apr-21 23:00N 03°41' E 119°58'0 0.0 29.7
2018-Apr-21 22:00N 03°41' E 119°58'2 1.1 27.3
2018-Apr-21 20:00N 03°39' E 119°59'0 0.0 28.3
2018-Apr-21 19:00N 03°39' E 119°59'0 0.0 28.2
2018-Apr-21 18:00N 03°39' E 119°59'0 0.0 28.1
2018-Apr-21 12:00N 03°39' E 119°59'0 0.0 26.6
2018-Apr-21 11:00N 03°39' E 119°59'0 0.0 27.7
2018-Apr-21 10:00N 03°39' E 119°59'1 0.8 29.8
2018-Apr-21 09:00N 03°40' E 119°58'6 3.2 30.9
2018-Apr-21 07:00N 03°35' E 119°54'0 0.0 35.9
2018-Apr-21 02:00N 03°35' E 119°54'3 3.0 29.8
2018-Apr-21 01:00N 03°35' E 119°57'0 0.0 29.6
2018-Apr-21 00:00N 03°35' E 119°57'2 2.2 29.4
2018-Apr-20 23:00N 03°36' E 119°59'0 0.0 29.4
2018-Apr-20 22:00N 03°36' E 119°59'0 0.0 29.4
2018-Apr-20 21:00N 03°36' E 119°59'2 2.5 29.4
2018-Apr-20 20:00N 03°38' E 119°59'0 0.0 29.4
2018-Apr-20 19:00N 03°38' E 119°59'0 0.0 29.4
2018-Apr-20 18:00N 03°38' E 119°59'7 1.7 29.4
2018-Apr-20 14:00N 03°41' E 120°05'4 3.6 29.5
2018-Apr-20 13:00N 03°42' E 120°09'3 1.6 29.5
2018-Apr-20 11:00N 03°45' E 120°10'1 0.8 29.6
2018-Apr-20 10:00N 03°44' E 120°11'5 2.6 29.9
2018-Apr-20 08:00N 03°49' E 120°14'9 1.6 30.3
2018-Apr-20 02:00N 03°52' E 120°23'2 0.8 29.5
2018-Apr-20 00:00N 03°53' E 120°24'2 1.7 28.8
2018-Apr-19 23:00N 03°54' E 120°25'0 0.0 29.2
2018-Apr-19 22:00N 03°54' E 120°25'1 0.8 29.2
2018-Apr-19 21:00N 03°55' E 120°26'2 1.9 29.2
2018-Apr-19 20:00N 03°56' E 120°26'6 6.3 29.3
2018-Apr-19 19:00N 03°58' E 120°32'6 5.9 29.3
2018-Apr-19 18:00N 03°56' E 120°27'6 1.2 29.3
2018-Apr-19 13:00N 03°58' E 120°32'2 1.8 29.3
2018-Apr-19 12:00N 03°58' E 120°34'1 0.8 29.2
2018-Apr-19 11:00N 03°59' E 120°34'2 1.9 29.4
2018-Apr-19 10:00N 03°59' E 120°35'1 0.6 29.4
2018-Apr-19 09:00N 03°59' E 120°36'1 0.8 29.4
2018-Apr-19 08:00N 04°00' E 120°37'0 0.0 29.4
2018-Apr-19 07:00N 04°00' E 120°37'8 1.3 29.5
2018-Apr-19 01:00N 04°01' E 120°44'0 0.0 29.8
2018-Apr-19 00:00N 04°01' E 120°44'3 2.5 29.3
2018-Apr-18 23:00N 04°03' E 120°46'2 1.7 29.3
2018-Apr-18 22:00N 04°04' E 120°47'0 0.0 29.2
2018-Apr-18 21:00N 04°04' E 120°47'0 0.0 29.3
2018-Apr-18 20:00N 04°04' E 120°47'7 7.0 29.3
2018-Apr-18 19:00N 04°07' E 120°54'7 7.0 29.3
2018-Apr-18 18:00N 04°04' E 120°47'8 1.9 29.3
2018-Apr-18 14:00N 04°07' E 120°55'0 0.0 29.3
2018-Apr-18 13:00N 04°07' E 120°55'2 1.9 29.3
2018-Apr-18 12:00N 04°08' E 120°56'1 0.8 29.4
2018-Apr-18 11:00N 04°07' E 120°56'1 1.3 29.4
2018-Apr-18 10:00N 04°08' E 120°57'1 0.6 29.4
2018-Apr-18 09:00N 04°08' E 120°56'0 0.0 29.5
2018-Apr-18 08:00N 04°08' E 120°56'2 2.4 29.7
2018-Apr-18 07:00N 04°08' E 120°59'0 0.0 30.5
2018-Apr-18 06:00N 04°08' E 120°59'8 1.6 30.2
2018-Apr-18 01:00N 04°08' E 121°07'0 0.0 29.4
2018-Apr-18 00:00N 04°08' E 121°07'1 1.2 29.5
2018-Apr-17 23:00N 04°08' E 121°08'3 3.2 29.4
2018-Apr-17 22:00N 04°09' E 121°11'2 2.4 29.4
2018-Apr-17 21:00N 04°09' E 121°13'0 0.0 29.4
2018-Apr-17 20:00N 04°09' E 121°13'7 7.2 29.4
2018-Apr-17 19:00N 04°10' E 121°20'7 7.2 29.4
2018-Apr-17 18:00N 04°09' E 121°13'7 1.8 29.4
2018-Apr-17 14:00N 04°10' E 121°20'1 1.2 29.4
2018-Apr-17 13:00N 04°10' E 121°22'2 1.9 29.4
2018-Apr-17 12:00N 04°10' E 121°23'1 1.3 29.4
2018-Apr-17 11:00N 04°11' E 121°25'1 0.8 29.4
2018-Apr-17 10:00N 04°10' E 121°24'3 3.5 29.4
2018-Apr-17 09:00N 04°12' E 121°27'0 0.0 29.4
2018-Apr-17 08:00N 04°12' E 121°27'2 0.9 29.4
2018-Apr-17 06:00N 04°12' E 121°29'8 1.6 29.5
2018-Apr-17 01:00N 04°12' E 121°37'3 3.0 29.4
2018-Apr-17 00:00N 04°14' E 121°39'0 0.0 29.4
2018-Apr-16 23:00N 04°14' E 121°39'1 1.3 29.4
2018-Apr-16 22:00N 04°14' E 121°40'3 3.0 29.2
2018-Apr-16 21:00N 04°16' E 121°43'0 0.0 29.4
2018-Apr-16 20:00N 04°16' E 121°43'3 3.1 29.3
2018-Apr-16 19:00N 04°17' E 121°46'0 0.0 29.4
2018-Apr-16 14:00N 04°17' E 121°46'3 3.0 29.3
2018-Apr-16 13:00N 04°19' E 121°48'1 0.6 29.3
2018-Apr-16 12:00N 04°19' E 121°49'2 1.7 29.4
2018-Apr-16 11:00N 04°20' E 121°50'0 0.0 29.5
2018-Apr-16 10:00N 04°20' E 121°50'3 3.4 29.5
2018-Apr-16 09:00N 04°22' E 121°52'1 1.3 29.5
2018-Apr-16 08:00N 04°21' E 121°52'1 1.3 29.6
2018-Apr-16 07:00N 04°22' E 121°52'0 0.0 29.6
2018-Apr-16 06:00N 04°22' E 121°52'7 1.8 29.6
2018-Apr-16 02:00N 04°25' E 121°59'1 0.8 29.5
2018-Apr-16 01:00N 04°25' E 121°59'0 0.0 29.5
2018-Apr-16 00:00N 04°25' E 121°59'0 0.0 29.4
2018-Apr-15 23:00N 04°25' E 121°59'1 0.6 29.4
2018-Apr-15 22:00N 04°25' E 122°00'2 1.9 29.4
2018-Apr-15 21:00N 04°24' E 122°02'2 1.8 29.4
2018-Apr-15 20:00N 04°24' E 122°00'5 5.4 29.5
2018-Apr-15 19:00N 04°22' E 122°05'0 0.0 29.5
2018-Apr-15 14:00N 04°22' E 122°05'1 0.8 29.6
2018-Apr-15 13:00N 04°21' E 122°05'2 1.8 29.6
2018-Apr-15 12:00N 04°21' E 122°07'1 0.8 29.7
2018-Apr-15 11:00N 04°20' E 122°08'0 0.0 29.7
2018-Apr-15 09:00N 04°20' E 122°08'0 0.0 29.8
2018-Apr-15 08:00N 04°20' E 122°08'7 7.2 29.9
2018-Apr-15 07:00N 04°20' E 122°15'7 7.2 29.9
2018-Apr-15 06:00N 04°20' E 122°08'7 1.8 29.9
2018-Apr-15 02:00N 04°20' E 122°15'5 2.3 29.6
2018-Apr-15 00:00N 04°18' E 122°19'0 0.0 29.4
2018-Apr-14 23:00N 04°18' E 122°19'5 4.9 29.4
2018-Apr-14 22:00N 04°17' E 122°24'2 2.5 29.4
2018-Apr-14 21:00N 04°16' E 122°22'3 3.4 29.4
2018-Apr-14 20:00N 04°14' E 122°24'0 0.0 29.4
2018-Apr-14 19:00N 04°14' E 122°24'1010.2 29.4
2018-Apr-14 18:00N 04°10' E 122°34'0 0.0 29.4
2018-Apr-14 14:00N 04°10' E 122°34'2 2.2 29.5
2018-Apr-14 13:00N 04°09' E 122°35'3 3.2 29.5
2018-Apr-14 12:00N 04°08' E 122°38'1 1.2 29.5
2018-Apr-14 11:00N 04°08' E 122°40'   29.6

Dump ship's entire track history